Time;durP1;ratioP1;P1;durP2;ratioP2;P2;SDS_P1;SDS_P2;PMS_P1;PMS_P2;Temp;Humidity;BMP_temperature;BMP_pressure;BME280_temperature;BME280_humidity;BME280_pressure;Samples;Min_cycle;Max_cycle;Signal;HPM_P1;HPM_P2
2023/01/17 00:02:16;;;;;;;0.70;0.70;;;;;;;-4.50;100.00;99122.53;5073308;28;20066;-85
2023/01/17 00:11:08;;;;;;;0.63;0.63;;;;;;;-4.58;100.00;99123.25;5090829;28;20047;-85
2023/01/17 00:13:35;;;;;;;0.70;0.70;;;;;;;-4.53;100.00;99129.88;5089515;28;20036;-85
2023/01/17 00:16:02;;;;;;;0.82;0.82;;;;;;;-4.51;100.00;99126.13;5090565;28;20063;-84
2023/01/17 00:18:29;;;;;;;0.70;0.70;;;;;;;-4.50;100.00;99124.34;5089360;28;20055;-85
2023/01/17 00:26:30;;;;;;;0.68;0.68;;;;;;;-4.52;100.00;99103.38;5089446;28;20051;-84
2023/01/17 01:33:45;;;;;;;0.80;0.80;;;;;;;-4.21;100.00;99089.91;5072456;28;20075;-86
2023/01/17 01:36:12;;;;;;;1.00;1.00;;;;;;;-4.13;100.00;99095.25;5073236;28;20087;-85
2023/01/17 01:38:39;;;;;;;1.00;1.00;;;;;;;-4.15;100.00;99087.53;5073548;28;20059;-86
2023/01/17 01:41:06;;;;;;;1.00;1.00;;;;;;;-4.21;100.00;99106.53;5073524;28;20045;-86
2023/01/17 01:43:47;;;;;;;0.82;0.82;;;;;;;-4.20;100.00;99113.50;5088816;28;20049;-85
2023/01/17 01:46:19;;;;;;;0.93;0.93;;;;;;;-4.25;100.00;99078.84;5073588;28;20083;-85
2023/01/17 01:48:59;;;;;;;0.70;0.70;;;;;;;-4.26;100.00;99076.34;5055679;28;20143;-85
2023/01/17 01:51:37;;;;;;;0.70;0.70;;;;;;;-4.24;100.00;99093.66;5072092;28;20499;-86
2023/01/17 01:54:15;;;;;;;0.80;0.80;;;;;;;-4.20;100.00;99091.59;5079735;28;20075;-87
2023/01/17 01:56:43;;;;;;;0.90;0.90;;;;;;;-4.17;100.00;99100.00;5102262;28;20071;-87
2023/01/17 01:59:12;;;;;;;0.90;0.90;;;;;;;-4.21;100.00;99092.53;5083108;28;20499;-87
2023/01/17 02:01:39;;;;;;;0.70;0.70;;;;;;;-4.23;100.00;99087.44;5083174;28;20051;-87
2023/01/17 02:04:08;;;;;;;0.90;0.90;;;;;;;-4.10;100.00;99089.72;5081259;28;20078;-85
2023/01/17 02:06:39;;;;;;;0.70;0.70;;;;;;;-4.09;100.00;99093.19;5083943;28;20067;-87
2023/01/17 02:09:08;;;;;;;0.88;0.88;;;;;;;-4.09;100.00;99096.63;5083216;28;20049;-86
2023/01/17 02:11:36;;;;;;;0.90;0.90;;;;;;;-4.11;100.00;99098.59;5086562;28;20449;-86
2023/01/17 02:14:03;;;;;;;0.70;0.70;;;;;;;-4.11;100.00;99087.22;5073159;28;20053;-87
2023/01/17 02:16:32;;;;;;;0.90;0.90;;;;;;;-4.06;100.00;99077.88;5072701;28;20049;-85
2023/01/17 02:19:41;;;;;;;0.70;0.70;;;;;;;-4.03;100.00;99092.56;5079217;28;20044;-84
2023/01/17 02:22:20;;;;;;;0.73;0.73;;;;;;;-4.05;100.00;99086.63;5021530;28;20100;-84
2023/01/17 02:25:04;;;;;;;0.80;0.80;;;;;;;-4.03;99.88;99090.75;5024793;28;20049;-83
2023/01/17 02:27:53;;;;;;;0.70;0.70;;;;;;;-4.03;99.90;99084.66;5023720;28;20049;-83
2023/01/17 02:30:49;;;;;;;0.90;0.90;;;;;;;-3.98;99.71;99090.31;5027424;28;20061;-82
2023/01/17 02:33:37;;;;;;;0.65;0.65;;;;;;;-4.03;99.69;99085.50;5029498;28;20042;-84
2023/01/17 02:36:12;;;;;;;0.70;0.70;;;;;;;-4.06;99.77;99063.88;5015452;28;20260;-83
2023/01/17 02:38:45;;;;;;;0.90;0.90;;;;;;;-4.07;99.53;99072.78;5010967;28;20045;-88
2023/01/17 02:41:36;;;;;;;0.85;0.85;;;;;;;-4.07;99.72;99065.69;5013336;28;20050;-84
2023/01/17 02:44:04;;;;;;;0.60;0.60;;;;;;;-4.03;99.66;99069.66;5019746;28;20057;-84
2023/01/17 02:46:31;;;;;;;0.70;0.70;;;;;;;-4.02;99.49;99066.06;5002182;28;20054;-85
2023/01/17 02:48:59;;;;;;;0.90;0.90;;;;;;;-3.98;99.36;99063.94;5020125;28;20112;-85
2023/01/17 02:51:58;;;;;;;0.60;0.60;;;;;;;-4.00;99.07;99069.41;5025115;28;20124;-85
2023/01/17 02:54:26;;;;;;;0.65;0.65;;;;;;;-3.97;98.79;99070.91;4943459;29;20540;-84
2023/01/17 02:57:11;;;;;;;0.90;0.90;;;;;;;-3.99;98.77;99063.13;4949979;28;20539;-84
2023/01/17 03:00:03;;;;;;;0.80;0.80;;;;;;;-3.90;98.49;99065.84;5018062;28;20049;-84
2023/01/17 03:02:46;;;;;;;0.60;0.60;;;;;;;-3.96;98.41;99060.19;5020219;28;20045;-83
2023/01/17 03:05:18;;;;;;;1.27;1.20;;;;;;;-3.92;98.37;99066.81;5001977;28;20136;-84
2023/01/17 03:07:47;;;;;;;0.90;0.90;;;;;;;-3.92;97.98;99056.28;5017941;28;20184;-85
2023/01/17 03:10:15;;;;;;;1.00;1.00;;;;;;;-3.90;98.10;99045.56;5012096;28;20068;-83
2023/01/17 03:12:42;;;;;;;0.70;0.70;;;;;;;-3.87;97.91;99050.56;5029929;28;20085;-88
2023/01/17 03:15:11;;;;;;;0.90;0.90;;;;;;;-3.88;97.68;99053.34;5007292;28;20148;-84
2023/01/17 03:17:41;;;;;;;0.80;0.80;;;;;;;-3.92;97.45;99051.00;5008005;28;20057;-85
2023/01/17 03:20:09;;;;;;;0.90;0.90;;;;;;;-3.96;97.74;99048.81;5008229;28;20452;-84
2023/01/17 03:22:36;;;;;;;0.77;0.77;;;;;;;-3.94;97.69;99060.88;4991492;28;20042;-87
2023/01/17 03:25:04;;;;;;;1.00;1.00;;;;;;;-3.99;97.61;99052.59;5009187;28;20069;-87
2023/01/17 03:27:32;;;;;;;0.82;0.82;;;;;;;-3.97;97.91;99045.34;5005207;28;20468;-86
2023/01/17 03:30:00;;;;;;;0.70;0.70;;;;;;;-3.98;98.02;99041.03;5056624;28;20052;-87
2023/01/17 03:32:29;;;;;;;0.90;0.90;;;;;;;-3.97;98.04;99048.00;5091222;28;20036;-88
2023/01/17 03:34:56;;;;;;;0.80;0.80;;;;;;;-3.91;98.16;99049.19;5084794;28;20064;-86
2023/01/17 03:37:23;;;;;;;0.82;0.82;;;;;;;-3.87;98.25;99052.34;5089238;28;20091;-89
2023/01/17 03:39:50;;;;;;;0.82;0.82;;;;;;;-3.87;98.31;99042.66;5090189;28;20080;-87
2023/01/17 03:42:17;;;;;;;0.90;0.90;;;;;;;-3.84;98.03;99059.97;5092480;28;20071;-87
2023/01/17 03:44:49;;;;;;;0.90;0.90;;;;;;;-3.84;98.10;99049.44;5091629;28;20054;-87
2023/01/17 03:47:16;;;;;;;0.80;0.80;;;;;;;-3.88;97.97;99055.97;5057714;28;20080;-86
2023/01/17 03:49:43;;;;;;;0.80;0.80;;;;;;;-3.95;98.08;99046.03;5077239;28;20067;-87
2023/01/17 03:52:10;;;;;;;0.70;0.70;;;;;;;-3.90;98.03;99057.94;5071981;28;20076;-86
2023/01/17 03:54:37;;;;;;;0.80;0.80;;;;;;;-3.90;97.82;99048.19;5083081;28;20040;-87
2023/01/17 03:57:04;;;;;;;0.80;0.80;;;;;;;-3.96;97.94;99039.09;5090945;28;20102;-86
2023/01/17 03:59:32;;;;;;;0.90;0.90;;;;;;;-3.87;98.21;99052.34;5091382;28;20054;-84
2023/01/17 04:02:00;;;;;;;0.52;0.52;;;;;;;-3.89;98.47;99052.50;5082593;28;20491;-85
2023/01/17 04:04:27;;;;;;;0.60;0.60;;;;;;;-3.86;98.11;99051.38;5081380;28;20056;-85
2023/01/17 04:06:56;;;;;;;0.90;0.90;;;;;;;-3.87;98.28;99049.72;5090855;28;20051;-87
2023/01/17 04:09:23;;;;;;;0.70;0.70;;;;;;;-3.85;98.48;99050.38;5084254;28;20047;-86
2023/01/17 04:11:52;;;;;;;0.90;0.90;;;;;;;-3.78;98.45;99060.19;5071495;28;20097;-87
2023/01/17 04:14:19;;;;;;;1.00;1.00;;;;;;;-3.78;98.07;99068.09;5076408;28;20048;-85
2023/01/17 04:16:47;;;;;;;1.00;1.00;;;;;;;-3.76;97.88;99058.22;5083260;28;20059;-86
2023/01/17 04:19:14;;;;;;;0.73;0.73;;;;;;;-3.75;97.60;99059.06;5091296;28;20047;-86
2023/01/17 04:21:41;;;;;;;0.80;0.80;;;;;;;-3.72;97.51;99066.69;5089087;28;20097;-85
2023/01/17 04:24:08;;;;;;;0.60;0.60;;;;;;;-3.75;97.49;99051.13;5088940;28;20052;-84
2023/01/17 04:26:35;;;;;;;0.80;0.80;;;;;;;-3.71;97.45;99058.59;5085502;28;20059;-87
2023/01/17 04:29:02;;;;;;;0.80;0.80;;;;;;;-3.66;97.61;99070.50;5090883;28;20119;-87
2023/01/17 04:31:30;;;;;;;0.70;0.70;;;;;;;-3.64;97.40;99074.66;5091841;28;20044;-87
2023/01/17 04:33:57;;;;;;;0.70;0.70;;;;;;;-3.76;97.27;99060.03;5109746;28;20142;-88
2023/01/17 04:36:24;;;;;;;0.68;0.68;;;;;;;-3.65;97.60;99080.06;5067949;28;20044;-87
2023/01/17 04:38:51;;;;;;;0.90;0.90;;;;;;;-3.67;97.35;99071.47;5087497;28;20629;-88
2023/01/17 04:41:18;;;;;;;0.57;0.57;;;;;;;-3.63;97.43;99078.13;5097747;28;20109;-84
2023/01/17 04:43:45;;;;;;;0.90;0.90;;;;;;;-3.68;97.50;99070.66;5081371;28;20048;-86
2023/01/17 04:46:12;;;;;;;0.80;0.80;;;;;;;-3.65;97.65;99080.91;5107455;28;20083;-87
2023/01/17 04:48:40;;;;;;;0.80;0.80;;;;;;;-3.68;97.79;99073.28;5093035;28;20075;-88
2023/01/17 04:51:07;;;;;;;0.70;0.70;;;;;;;-3.64;97.66;99079.13;5092478;28;20449;-87
2023/01/17 04:53:39;;;;;;;0.90;0.90;;;;;;;-3.64;97.69;99073.84;5084192;28;20051;-89
2023/01/17 04:56:06;;;;;;;0.85;0.85;;;;;;;-3.64;97.93;99076.47;5090623;28;20040;-87
2023/01/17 04:58:33;;;;;;;0.80;0.80;;;;;;;-3.58;97.82;99074.03;5075434;28;20114;-88
2023/01/17 05:01:05;;;;;;;0.90;0.90;;;;;;;-3.60;97.53;99057.53;5085394;28;20513;-90
2023/01/17 05:03:43;;;;;;;1.10;1.10;;;;;;;-3.65;97.44;99075.63;5092539;28;20036;-90
2023/01/17 05:06:16;;;;;;;0.93;0.93;;;;;;;-3.74;97.71;99071.28;5073600;28;20306;-87
2023/01/17 05:08:43;;;;;;;0.95;0.95;;;;;;;-3.72;97.82;99050.84;5090600;28;20052;-86
2023/01/17 05:11:10;;;;;;;0.73;0.73;;;;;;;-3.65;97.70;99045.78;5091224;28;20085;-87
2023/01/17 05:13:39;;;;;;;0.90;0.90;;;;;;;-3.65;97.77;99065.06;5072787;28;20539;-87
2023/01/17 05:16:06;;;;;;;1.00;1.00;;;;;;;-3.64;97.68;99074.66;5090442;28;20044;-87
2023/01/17 05:18:34;;;;;;;0.90;0.90;;;;;;;-3.57;97.92;99075.72;5091977;28;20059;-88
2023/01/17 05:21:04;;;;;;;0.60;0.60;;;;;;;-3.55;98.06;99084.28;5073664;28;20417;-88
2023/01/17 05:23:31;;;;;;;0.77;0.77;;;;;;;-3.55;97.95;99079.00;5108754;28;20046;-88
2023/01/17 05:25:58;;;;;;;0.90;0.90;;;;;;;-3.57;97.96;99075.72;5091890;28;20137;-87
2023/01/17 05:28:26;;;;;;;0.77;0.77;;;;;;;-3.57;98.07;99075.72;5090092;28;20044;-89
2023/01/17 05:30:53;;;;;;;0.80;0.80;;;;;;;-3.62;98.09;99051.59;5090172;28;20091;-86
2023/01/17 05:33:21;;;;;;;0.82;0.82;;;;;;;-3.54;98.00;99079.84;5091074;28;20085;-87
2023/01/17 05:35:48;;;;;;;0.57;0.57;;;;;;;-3.61;98.24;99063.78;5077799;28;20053;-87
2023/01/17 05:38:15;;;;;;;0.90;0.90;;;;;;;-3.59;98.33;99071.56;5070450;28;20151;-87
2023/01/17 05:40:42;;;;;;;0.80;0.80;;;;;;;-3.54;98.37;99069.31;5071377;28;20059;-88
2023/01/17 05:43:09;;;;;;;0.88;0.88;;;;;;;-3.52;98.46;99062.03;5070772;28;20156;-87
2023/01/17 05:45:36;;;;;;;0.73;0.73;;;;;;;-3.47;98.55;99072.13;5076792;28;20441;-88
2023/01/17 05:48:04;;;;;;;0.90;0.90;;;;;;;-3.49;98.43;99085.50;5098123;28;20060;-87
2023/01/17 05:50:35;;;;;;;0.88;0.88;;;;;;;-3.48;98.53;99079.25;5082246;28;20514;-88
2023/01/17 05:53:07;;;;;;;0.80;0.80;;;;;;;-3.51;98.50;99082.19;5092140;28;20075;-87
2023/01/17 05:55:35;;;;;;;0.88;0.88;;;;;;;-3.49;98.55;99077.59;5092904;28;20150;-87
2023/01/17 05:58:03;;;;;;;0.80;0.80;;;;;;;-3.43;98.78;99073.50;5091319;28;20052;-87
2023/01/17 06:00:30;;;;;;;0.90;0.90;;;;;;;-3.44;98.72;99074.47;5091038;28;20048;-87
2023/01/17 06:02:59;;;;;;;0.93;0.93;;;;;;;-3.46;98.75;99079.91;5074389;28;20421;-88
2023/01/17 06:05:27;;;;;;;1.10;1.10;;;;;;;-3.45;98.85;99073.66;5093619;28;20044;-88
2023/01/17 06:07:57;;;;;;;0.85;0.85;;;;;;;-3.42;98.71;99085.69;5094300;28;20089;-86
2023/01/17 06:10:26;;;;;;;0.90;0.90;;;;;;;-3.44;98.77;99079.75;5075992;28;20143;-88
2023/01/17 06:13:05;;;;;;;0.90;0.90;;;;;;;-3.38;98.96;99081.78;5094166;28;20044;-88
2023/01/17 06:15:34;;;;;;;0.80;0.80;;;;;;;-3.42;99.00;99083.06;5094190;28;20058;-86
2023/01/17 06:18:05;;;;;;;0.98;0.98;;;;;;;-3.41;99.06;99080.28;5076408;28;20079;-86
2023/01/17 06:20:32;;;;;;;0.98;0.98;;;;;;;-3.37;98.91;99084.25;5093967;28;20043;-88
2023/01/17 06:23:09;;;;;;;0.77;0.77;;;;;;;-3.34;99.03;99086.63;5095002;28;20059;-88
2023/01/17 06:25:37;;;;;;;0.80;0.80;;;;;;;-3.31;99.11;99085.47;5093639;28;20105;-87
2023/01/17 06:28:05;;;;;;;0.90;0.90;;;;;;;-3.33;98.89;99082.16;5093066;28;20135;-87
2023/01/17 06:30:39;;;;;;;0.80;0.80;;;;;;;-3.29;98.83;99096.72;5093046;28;20048;-87
2023/01/17 06:33:06;;;;;;;0.80;0.80;;;;;;;-3.37;98.71;99075.50;5092823;28;20048;-86
2023/01/17 06:35:33;;;;;;;1.00;1.00;;;;;;;-3.27;98.81;99076.25;5081083;28;20147;-87
2023/01/17 06:38:00;;;;;;;0.95;0.95;;;;;;;-3.26;98.96;99085.84;5072051;28;20056;-87
2023/01/17 06:40:28;;;;;;;0.88;0.88;;;;;;;-3.15;98.90;99082.94;5075313;28;20499;-87
2023/01/17 06:43:00;;;;;;;0.82;0.82;;;;;;;-3.13;99.11;99078.34;5073454;28;20340;-88
2023/01/17 06:45:28;;;;;;;0.90;0.90;;;;;;;-3.11;98.92;99092.22;5072517;28;20393;-88
2023/01/17 06:47:57;;;;;;;0.80;0.80;;;;;;;-3.13;98.72;99069.59;5073494;28;20061;-87
2023/01/17 06:50:25;;;;;;;0.90;0.90;;;;;;;-3.06;98.84;99083.84;5088386;28;20122;-87
2023/01/17 06:52:58;;;;;;;0.98;0.98;;;;;;;-3.05;98.51;99086.31;5088996;28;20144;-87
2023/01/17 06:55:29;;;;;;;0.90;0.90;;;;;;;-3.03;98.77;99087.97;5089964;28;20064;-88
2023/01/17 06:57:58;;;;;;;1.00;1.00;;;;;;;-3.04;98.64;99076.56;5092557;28;20048;-87
2023/01/17 07:00:26;;;;;;;0.80;0.80;;;;;;;-2.99;98.64;99091.94;5091236;28;20502;-89
2023/01/17 07:02:53;;;;;;;0.77;0.77;;;;;;;-3.02;98.36;99089.63;5071630;28;20487;-87
2023/01/17 07:05:20;;;;;;;0.70;0.70;;;;;;;-2.98;98.52;99093.63;5054754;28;20045;-87
2023/01/17 07:07:48;;;;;;;0.77;0.77;;;;;;;-3.01;98.78;99101.84;5072195;28;20080;-86
2023/01/17 07:10:17;;;;;;;1.00;1.00;;;;;;;-3.03;98.51;99090.63;5090466;28;20470;-87
2023/01/17 07:12:45;;;;;;;0.90;0.90;;;;;;;-3.05;98.42;99086.31;5091229;28;20044;-87
2023/01/17 07:15:12;;;;;;;1.00;1.00;;;;;;;-2.93;98.55;99086.06;5092371;28;20502;-88
2023/01/17 07:17:42;;;;;;;0.93;0.93;;;;;;;-2.87;98.57;99086.25;5092253;28;20093;-87
2023/01/17 07:20:09;;;;;;;0.80;0.80;;;;;;;-2.87;98.47;99083.59;5092054;28;20074;-87
2023/01/17 07:22:36;;;;;;;0.73;0.73;;;;;;;-2.83;98.47;99092.88;5094019;28;20107;-88
2023/01/17 07:25:09;;;;;;;0.93;0.93;;;;;;;-2.81;98.59;99089.25;5077266;28;20086;-88
2023/01/17 07:27:36;;;;;;;0.80;0.80;;;;;;;-2.72;98.48;99107.63;5094403;28;20136;-86
2023/01/17 07:30:03;;;;;;;1.00;1.00;;;;;;;-2.73;98.44;99087.50;5108988;28;20051;-87
2023/01/17 07:32:30;;;;;;;0.90;0.90;;;;;;;-2.68;98.23;99095.78;5093109;28;20044;-88
2023/01/17 07:34:57;;;;;;;0.90;0.90;;;;;;;-2.69;97.98;99086.19;5087231;28;20106;-88
2023/01/17 07:37:27;;;;;;;0.90;0.90;;;;;;;-2.73;97.85;99099.88;5074162;28;20056;-87
2023/01/17 07:39:54;;;;;;;1.00;1.00;;;;;;;-2.70;98.19;99070.50;5074521;28;20059;-87
2023/01/17 07:42:21;;;;;;;0.95;0.95;;;;;;;-2.64;98.16;99094.47;5054993;28;20088;-88
2023/01/17 07:44:50;;;;;;;0.90;0.90;;;;;;;-2.62;98.16;99095.13;5075614;28;20068;-87
2023/01/17 07:47:17;;;;;;;1.00;1.00;;;;;;;-2.66;97.93;99099.09;5093963;28;20094;-86
2023/01/17 07:49:44;;;;;;;1.00;1.00;;;;;;;-2.58;97.91;99087.75;5077323;28;20048;-87
2023/01/17 07:52:11;;;;;;;0.90;0.90;;;;;;;-2.54;98.03;99096.16;5077137;28;20071;-87
2023/01/17 07:54:38;;;;;;;0.98;0.98;;;;;;;-2.54;98.10;99096.97;5088891;28;20044;-88
2023/01/17 07:57:10;;;;;;;1.10;1.10;;;;;;;-2.47;98.22;99105.94;5096932;28;20047;-87
2023/01/17 07:59:37;;;;;;;0.80;0.80;;;;;;;-2.46;98.25;99097.00;5096501;28;20085;-88
2023/01/17 08:02:04;;;;;;;0.80;0.80;;;;;;;-2.43;97.66;99107.28;5095317;28;20058;-87
2023/01/17 08:04:37;;;;;;;1.00;1.00;;;;;;;-2.45;98.41;99108.44;5093925;28;20105;-87
2023/01/17 08:07:04;;;;;;;1.00;1.00;;;;;;;-2.42;98.40;99114.22;5095865;28;20048;-87
2023/01/17 08:09:39;;;;;;;0.80;0.80;;;;;;;-2.40;98.47;99106.16;5096985;28;20099;-86
2023/01/17 08:12:07;;;;;;;0.90;0.90;;;;;;;-2.38;98.68;99104.19;5080156;28;20055;-88
2023/01/17 08:14:34;;;;;;;0.93;0.93;;;;;;;-2.32;98.57;99115.94;5094422;28;20048;-87
2023/01/17 08:17:13;;;;;;;0.90;0.90;;;;;;;-2.30;98.69;99096.28;5094631;28;20051;-88
2023/01/17 08:19:40;;;;;;;0.77;0.77;;;;;;;-2.31;98.73;99110.47;5111715;28;20052;-87
2023/01/17 08:22:07;;;;;;;0.93;0.93;;;;;;;-2.25;99.02;99114.31;5097575;28;20046;-86
2023/01/17 08:24:34;;;;;;;0.98;0.98;;;;;;;-2.20;98.67;99102.25;5111797;28;20048;-87
2023/01/17 08:27:01;;;;;;;1.00;1.00;;;;;;;-2.16;98.82;99112.50;5096200;28;20108;-87
2023/01/17 08:29:28;;;;;;;0.90;0.90;;;;;;;-2.08;98.82;99100.13;5094123;28;20070;-87
2023/01/17 08:31:55;;;;;;;0.75;0.75;;;;;;;-2.09;98.55;99108.25;5091630;28;20098;-87
2023/01/17 08:34:23;;;;;;;0.90;0.90;;;;;;;-2.04;98.46;99100.66;5089477;28;20066;-88
2023/01/17 08:36:51;;;;;;;0.88;0.88;;;;;;;-2.00;98.31;99121.31;5090025;28;20055;-86
2023/01/17 08:39:19;;;;;;;0.80;0.80;;;;;;;-2.00;98.40;99105.47;5088349;28;20052;-87
2023/01/17 08:41:46;;;;;;;1.00;1.00;;;;;;;-1.96;98.30;99100.66;5072869;28;20044;-86
2023/01/17 08:44:14;;;;;;;1.10;1.10;;;;;;;-1.99;97.90;99095.69;5055116;28;20140;-86
2023/01/17 08:46:43;;;;;;;0.93;0.93;;;;;;;-1.87;97.88;99107.63;5072201;28;20058;-86
2023/01/17 08:49:11;;;;;;;1.00;1.00;;;;;;;-1.87;97.84;99101.53;5072086;28;20055;-86
2023/01/17 08:51:39;;;;;;;0.90;0.90;;;;;;;-1.80;97.85;99098.06;5057498;28;20059;-86
2023/01/17 08:54:13;;;;;;;1.00;1.00;;;;;;;-1.76;97.71;99102.03;5082024;28;20403;-86
2023/01/17 08:56:45;;;;;;;0.98;0.98;;;;;;;-1.73;97.54;99108.81;5063319;28;20172;-87
2023/01/17 08:59:12;;;;;;;0.90;0.90;;;;;;;-1.78;97.09;99093.41;5089600;28;20181;-87
2023/01/17 09:01:40;;;;;;;1.00;1.00;;;;;;;-1.75;97.34;99089.59;5080890;28;20051;-87
2023/01/17 09:04:08;;;;;;;1.10;1.10;;;;;;;-1.66;97.27;99095.75;5071737;28;20055;-86
2023/01/17 09:06:37;;;;;;;0.90;0.90;;;;;;;-1.58;97.16;99093.13;5070311;28;20097;-86
2023/01/17 09:09:07;;;;;;;0.80;0.80;;;;;;;-1.61;97.26;99082.88;5070801;28;20080;-86
2023/01/17 09:11:36;;;;;;;0.90;0.90;;;;;;;-1.57;97.31;99089.47;5071350;28;20052;-86
2023/01/17 09:14:03;;;;;;;0.90;0.90;;;;;;;-1.66;97.02;99082.53;5069934;28;20049;-87
2023/01/17 09:16:31;;;;;;;1.10;1.10;;;;;;;-1.59;97.11;99081.72;5070082;28;20490;-87
2023/01/17 09:18:58;;;;;;;0.77;0.77;;;;;;;-1.70;97.10;99082.00;5085938;28;20125;-87
2023/01/17 09:21:25;;;;;;;0.90;0.90;;;;;;;-1.64;97.04;99081.38;5070574;28;20044;-86
2023/01/17 09:23:57;;;;;;;0.80;0.80;;;;;;;-1.58;97.17;99078.06;5069802;28;20059;-87
2023/01/17 09:26:26;;;;;;;1.02;1.02;;;;;;;-1.49;97.02;99084.19;5072021;28;20411;-87
2023/01/17 09:28:54;;;;;;;1.00;1.00;;;;;;;-1.52;97.04;99071.25;5070409;28;20045;-88
2023/01/17 09:31:22;;;;;;;0.82;0.82;;;;;;;-1.46;96.91;99077.75;5069987;28;20143;-86
2023/01/17 09:33:50;;;;;;;0.90;0.90;;;;;;;-1.42;97.19;99092.28;5069770;28;20047;-86
2023/01/17 09:36:17;;;;;;;0.90;0.90;;;;;;;-1.42;97.11;99084.34;5072298;28;20465;-86
2023/01/17 09:38:45;;;;;;;1.00;1.00;;;;;;;-1.41;97.07;99078.91;5073167;28;20090;-87
2023/01/17 09:41:28;;;;;;;0.95;0.95;;;;;;;-1.40;97.22;99085.81;5074532;28;20484;-87
2023/01/17 09:44:04;;;;;;;0.90;0.90;;;;;;;-1.37;97.23;99085.53;5075288;28;20141;-87
2023/01/17 09:46:36;;;;;;;1.00;1.00;;;;;;;-1.31;97.39;99081.38;5070187;28;20059;-90
2023/01/17 09:49:13;;;;;;;0.90;0.90;;;;;;;-1.29;97.19;99075.91;5074182;28;20075;-87
2023/01/17 09:51:43;;;;;;;1.00;1.00;;;;;;;-1.25;97.05;99093.94;5087376;28;20134;-88
2023/01/17 09:54:24;;;;;;;0.90;0.90;;;;;;;-1.24;97.18;99090.31;5087369;28;20052;-87
2023/01/17 09:57:08;;;;;;;0.93;0.93;;;;;;;-1.29;97.18;99073.25;5088088;28;20151;-87
2023/01/17 09:59:41;;;;;;;0.80;0.80;;;;;;;-1.26;97.26;99084.34;5085189;28;20056;-82
2023/01/17 10:02:17;;;;;;;0.90;0.90;;;;;;;-1.26;97.33;99086.19;5082762;28;20143;-87
2023/01/17 10:05:17;;;;;;;0.93;0.93;;;;;;;-1.24;97.36;99084.16;5082658;28;20062;-87
2023/01/17 10:08:06;;;;;;;0.98;0.98;;;;;;;-1.25;97.66;99082.53;5040310;28;20064;-86
2023/01/17 10:10:41;;;;;;;0.90;0.90;;;;;;;-1.23;97.71;99083.19;5068497;28;20056;-89
2023/01/17 10:13:11;;;;;;;0.90;0.90;;;;;;;-1.26;97.57;99086.19;5081856;28;20648;-88
2023/01/17 10:15:51;;;;;;;0.90;0.90;;;;;;;-1.27;97.72;99081.84;5075633;28;20620;-88
2023/01/17 10:18:35;;;;;;;0.90;0.90;;;;;;;-1.21;97.87;99086.50;5087349;28;20052;-88
2023/01/17 10:21:15;;;;;;;0.98;0.98;;;;;;;-1.17;98.08;99090.47;5068061;28;20689;-87
2023/01/17 10:23:52;;;;;;;1.00;1.00;;;;;;;-1.14;97.98;99077.72;5054837;28;20050;-88
2023/01/17 10:26:26;;;;;;;0.90;0.90;;;;;;;-1.08;97.76;99075.41;5065651;28;20718;-90
2023/01/17 10:29:00;;;;;;;1.00;1.00;;;;;;;-1.08;97.75;99070.09;5108261;28;20044;-87
2023/01/17 10:31:32;;;;;;;0.80;0.80;;;;;;;-1.02;97.76;99074.72;5083413;28;20117;-89
2023/01/17 10:34:08;;;;;;;0.80;0.80;;;;;;;-0.93;97.49;99074.53;5080637;28;20041;-88
2023/01/17 10:36:39;;;;;;;0.82;0.82;;;;;;;-0.88;97.18;99066.91;5089046;28;20064;-87
2023/01/17 10:39:22;;;;;;;0.93;0.93;;;;;;;-0.82;96.96;99069.88;5093717;28;20052;-88
2023/01/17 10:42:05;;;;;;;0.93;0.93;;;;;;;-0.82;96.95;99076.00;5094635;28;20049;-89
2023/01/17 10:44:57;;;;;;;0.90;0.90;;;;;;;-0.84;96.75;99080.63;5080962;28;20530;-88
2023/01/17 10:47:26;;;;;;;0.82;0.82;;;;;;;-0.84;96.95;99054.13;5066567;28;20056;-89
2023/01/17 10:49:57;;;;;;;1.08;1.08;;;;;;;-0.86;96.68;99064.09;5061576;28;20058;-88
2023/01/17 10:52:45;;;;;;;0.85;0.85;;;;;;;-0.87;96.61;99062.44;5094191;28;20048;-88
2023/01/17 10:55:22;;;;;;;1.00;1.00;;;;;;;-0.85;96.59;99060.44;5091161;28;20147;-86
2023/01/17 10:57:52;;;;;;;0.90;0.90;;;;;;;-0.83;96.76;99073.53;5076070;28;20105;-88
2023/01/17 11:00:50;;;;;;;0.90;0.90;;;;;;;-0.80;96.52;99070.53;5091829;28;20585;-89
2023/01/17 11:03:26;;;;;;;0.88;0.88;;;;;;;-0.78;96.67;99065.91;5090051;28;20117;-87
2023/01/17 11:06:21;;;;;;;1.00;1.00;;;;;;;-0.70;96.76;99073.81;5084368;28;20052;-88
2023/01/17 11:08:57;;;;;;;0.80;0.80;;;;;;;-0.67;96.55;99066.34;5083451;28;20040;-88
2023/01/17 11:11:32;;;;;;;0.90;0.90;;;;;;;-0.58;96.35;99061.84;5076604;28;20052;-88
2023/01/17 11:14:05;;;;;;;0.90;0.90;;;;;;;-0.57;96.07;99060.03;5072193;28;20051;-89
2023/01/17 11:16:38;;;;;;;0.90;0.90;;;;;;;-0.55;96.03;99065.97;5081652;28;20063;-86
2023/01/17 11:19:20;;;;;;;0.80;0.80;;;;;;;-0.52;95.79;99063.81;5075267;28;20086;-87
2023/01/17 11:22:12;;;;;;;0.80;0.80;;;;;;;-0.48;95.48;99061.63;5081367;28;20774;-88
2023/01/17 11:24:51;;;;;;;0.80;0.80;;;;;;;-0.48;95.65;99058.97;5056275;28;20056;-88
2023/01/17 11:27:32;;;;;;;0.98;0.98;;;;;;;-0.49;95.54;99052.84;5052302;28;20601;-85
2023/01/17 11:30:18;;;;;;;0.90;0.90;;;;;;;-0.49;95.27;99050.19;5063233;28;20498;-86
2023/01/17 11:32:55;;;;;;;1.00;1.00;;;;;;;-0.63;95.53;99037.69;5060753;28;20048;-85
2023/01/17 11:35:36;;;;;;;0.85;0.85;;;;;;;-0.50;95.39;99063.66;5065688;28;20060;-86
2023/01/17 11:38:05;;;;;;;0.90;0.90;;;;;;;-0.59;95.42;99054.06;5073083;28;20050;-86
2023/01/17 11:40:40;;;;;;;0.90;0.90;;;;;;;-0.52;95.26;99052.38;5073741;28;20058;-86
2023/01/17 11:43:14;;;;;;;0.90;0.90;;;;;;;-0.49;95.49;99049.38;5079079;28;20068;-86
2023/01/17 11:45:45;;;;;;;1.00;1.00;;;;;;;-0.46;95.27;99049.03;5087112;28;20135;-85
2023/01/17 11:48:26;;;;;;;0.95;0.95;;;;;;;-0.38;94.92;99061.41;5078523;28;20077;-86
2023/01/17 11:50:58;;;;;;;1.00;1.00;;;;;;;-0.41;94.73;99061.78;5063561;28;20098;-86
2023/01/17 11:53:34;;;;;;;0.90;0.90;;;;;;;-0.46;94.68;99055.19;5045351;28;20506;-86
2023/01/17 11:56:07;;;;;;;0.80;0.80;;;;;;;-0.43;94.75;99046.06;5081685;28;20091;-87
2023/01/17 11:58:40;;;;;;;0.90;0.90;;;;;;;-0.39;94.75;99067.72;5077714;28;20094;-86
2023/01/17 12:01:24;;;;;;;0.90;0.90;;;;;;;-0.35;94.83;99061.09;5084156;28;20673;-86
2023/01/17 12:04:24;;;;;;;0.90;0.90;;;;;;;-0.33;94.92;99067.88;5081294;28;20062;-87
2023/01/17 12:07:23;;;;;;;0.80;0.80;;;;;;;-0.30;94.44;99069.38;5080228;28;20514;-87
2023/01/17 12:10:24;;;;;;;1.00;1.00;;;;;;;-0.34;94.14;99068.88;5051398;28;20418;-87
2023/01/17 12:16:52;;;;;;;0.96;0.96;;;;;;;-0.32;94.11;99071.34;4935009;28;10001341;-87
2023/01/17 12:19:40;;;;;;;1.00;1.00;;;;;;;-0.33;94.17;99070.53;5048776;28;20262;-88
2023/01/17 12:22:36;;;;;;;0.90;0.90;;;;;;;-0.38;94.37;99062.28;5055138;28;20059;-86
2023/01/17 12:25:22;;;;;;;0.90;0.90;;;;;;;-0.35;94.35;99077.00;5009015;28;20443;-87
2023/01/17 12:28:15;;;;;;;1.00;1.00;;;;;;;-0.30;94.36;99062.22;5047226;28;20064;-90
2023/01/17 12:31:04;;;;;;;0.88;0.88;;;;;;;-0.27;94.10;99069.00;5039230;28;20040;-87
2023/01/17 12:33:50;;;;;;;1.00;1.00;;;;;;;-0.23;94.07;99065.00;5011053;28;20057;-86
2023/01/17 12:36:20;;;;;;;0.90;0.90;;;;;;;-0.23;93.94;99071.16;5040371;28;20540;-88
2023/01/17 12:38:55;;;;;;;0.98;0.98;;;;;;;-0.24;93.96;99045.59;5029160;28;20458;-87
2023/01/17 12:41:29;;;;;;;;;;;;;;;-0.24;93.82;99052.75;5012189;28;20046;-83
2023/01/17 12:43:58;;;;;;;0.80;0.80;;;;;;;-0.24;93.89;99063.34;5042287;28;20023;-87
2023/01/17 12:46:29;;;;;;;1.05;1.05;;;;;;;-0.17;93.57;99058.19;5029195;28;20178;-86
2023/01/17 12:49:23;;;;;;;0.93;0.93;;;;;;;-0.18;93.31;99060.00;5044973;28;20048;-87
2023/01/17 12:51:57;;;;;;;0.90;0.90;;;;;;;-0.22;93.32;99058.72;5007372;28;20053;-86
2023/01/17 12:54:44;;;;;;;0.85;0.85;;;;;;;-0.18;93.57;99061.81;5026166;28;20410;-87
2023/01/17 12:57:23;;;;;;;0.90;0.90;;;;;;;-0.23;93.51;99052.59;5059092;28;20400;-88
2023/01/17 13:00:05;;;;;;;0.90;0.90;;;;;;;-0.23;93.44;99046.44;5071979;28;20076;-85
2023/01/17 13:03:02;;;;;;;0.80;0.80;;;;;;;-0.23;93.50;99052.59;5070144;28;20094;-89
2023/01/17 13:05:39;;;;;;;0.80;0.80;;;;;;;-0.24;93.25;99047.44;5087524;28;20171;-89
2023/01/17 13:08:23;;;;;;;0.90;0.90;;;;;;;-0.22;93.20;99046.25;5089889;28;20048;-88
2023/01/17 13:11:17;;;;;;;0.82;0.82;;;;;;;-0.15;92.68;99058.81;5077718;28;20043;-91
2023/01/17 13:13:46;;;;;;;1.00;1.00;;;;;;;-0.28;92.72;99032.88;5102073;28;20047;-90
2023/01/17 13:16:39;;;;;;;1.00;1.00;;;;;;;-0.21;92.85;99057.69;5079626;28;20051;-90
2023/01/17 13:19:28;;;;;;;0.90;0.90;;;;;;;-0.17;92.52;99061.66;5093303;28;20052;-89